sensor_id;sensor_type;location;lat;lon;timestamp;temperature;humidity
65568;DHT22;52211;50.154;8.682;2024-01-06T00:01:29;8.40;64.80
65568;DHT22;52211;50.154;8.682;2024-01-06T00:04:01;8.40;64.80
65568;DHT22;52211;50.154;8.682;2024-01-06T00:06:30;8.40;64.80
65568;DHT22;52211;50.154;8.682;2024-01-06T00:08:59;8.40;64.80
65568;DHT22;52211;50.154;8.682;2024-01-06T00:11:32;8.30;64.70
65568;DHT22;52211;50.154;8.682;2024-01-06T00:13:59;8.30;64.80
65568;DHT22;52211;50.154;8.682;2024-01-06T00:16:26;8.30;64.80
65568;DHT22;52211;50.154;8.682;2024-01-06T00:18:55;8.30;64.80
65568;DHT22;52211;50.154;8.682;2024-01-06T00:21:22;8.20;64.80
65568;DHT22;52211;50.154;8.682;2024-01-06T00:23:51;8.20;64.80
65568;DHT22;52211;50.154;8.682;2024-01-06T00:26:18;8.20;64.90
65568;DHT22;52211;50.154;8.682;2024-01-06T00:28:45;8.20;64.90
65568;DHT22;52211;50.154;8.682;2024-01-06T00:31:14;8.20;65.00
65568;DHT22;52211;50.154;8.682;2024-01-06T00:33:44;8.10;65.00
65568;DHT22;52211;50.154;8.682;2024-01-06T00:36:16;8.10;65.00
65568;DHT22;52211;50.154;8.682;2024-01-06T00:38:43;8.10;65.10
65568;DHT22;52211;50.154;8.682;2024-01-06T00:41:10;8.10;65.10
65568;DHT22;52211;50.154;8.682;2024-01-06T00:43:39;8.00;65.10
65568;DHT22;52211;50.154;8.682;2024-01-06T00:46:06;8.00;65.10
65568;DHT22;52211;50.154;8.682;2024-01-06T00:48:34;8.00;65.20
65568;DHT22;52211;50.154;8.682;2024-01-06T00:51:01;8.00;65.20
65568;DHT22;52211;50.154;8.682;2024-01-06T00:53:30;7.90;65.20
65568;DHT22;52211;50.154;8.682;2024-01-06T00:55:59;7.90;65.30
65568;DHT22;52211;50.154;8.682;2024-01-06T00:58:31;7.90;65.30
65568;DHT22;52211;50.154;8.682;2024-01-06T01:01:00;7.90;65.40
65568;DHT22;52211;50.154;8.682;2024-01-06T01:03:30;7.90;65.40
65568;DHT22;52211;50.154;8.682;2024-01-06T01:05:59;7.90;65.40
65568;DHT22;52211;50.154;8.682;2024-01-06T01:08:26;7.90;65.40
65568;DHT22;52211;50.154;8.682;2024-01-06T01:10:53;7.90;65.40
65568;DHT22;52211;50.154;8.682;2024-01-06T01:13:20;7.80;65.30
65568;DHT22;52211;50.154;8.682;2024-01-06T01:15:49;7.90;65.40
65568;DHT22;52211;50.154;8.682;2024-01-06T01:18:18;7.90;65.40
65568;DHT22;52211;50.154;8.682;2024-01-06T01:20:46;7.90;65.50
65568;DHT22;52211;50.154;8.682;2024-01-06T01:23:13;7.90;65.50
65568;DHT22;52211;50.154;8.682;2024-01-06T01:25:42;7.90;66.10
65568;DHT22;52211;50.154;8.682;2024-01-06T01:28:09;7.90;65.50
65568;DHT22;52211;50.154;8.682;2024-01-06T01:30:36;7.90;65.50
65568;DHT22;52211;50.154;8.682;2024-01-06T01:33:03;8.00;65.50
65568;DHT22;52211;50.154;8.682;2024-01-06T01:35:35;8.00;65.50
65568;DHT22;52211;50.154;8.682;2024-01-06T01:38:02;8.00;65.60
65568;DHT22;52211;50.154;8.682;2024-01-06T01:40:32;8.00;65.50
65568;DHT22;52211;50.154;8.682;2024-01-06T01:42:59;8.00;65.50
65568;DHT22;52211;50.154;8.682;2024-01-06T01:45:25;8.10;65.50
65568;DHT22;52211;50.154;8.682;2024-01-06T01:47:57;8.00;65.50
65568;DHT22;52211;50.154;8.682;2024-01-06T01:50:29;8.10;65.60
65568;DHT22;52211;50.154;8.682;2024-01-06T01:52:57;8.10;65.60
65568;DHT22;52211;50.154;8.682;2024-01-06T01:55:28;8.10;65.50
65568;DHT22;52211;50.154;8.682;2024-01-06T01:57:55;8.10;65.50
65568;DHT22;52211;50.154;8.682;2024-01-06T02:00:22;8.20;65.60
65568;DHT22;52211;50.154;8.682;2024-01-06T02:02:53;8.20;65.60
65568;DHT22;52211;50.154;8.682;2024-01-06T02:05:27;8.20;65.60
65568;DHT22;52211;50.154;8.682;2024-01-06T02:07:56;8.20;65.60
65568;DHT22;52211;50.154;8.682;2024-01-06T02:10:28;8.30;65.60
65568;DHT22;52211;50.154;8.682;2024-01-06T02:12:58;8.30;65.60
65568;DHT22;52211;50.154;8.682;2024-01-06T02:15:36;8.30;65.70
65568;DHT22;52211;50.154;8.682;2024-01-06T02:18:04;8.30;65.60
65568;DHT22;52211;50.154;8.682;2024-01-06T02:20:32;8.30;65.60
65568;DHT22;52211;50.154;8.682;2024-01-06T02:23:03;8.40;65.60
65568;DHT22;52211;50.154;8.682;2024-01-06T02:25:30;8.40;65.60
65568;DHT22;52211;50.154;8.682;2024-01-06T02:27:57;8.40;65.60
65568;DHT22;52211;50.154;8.682;2024-01-06T02:30:24;8.40;65.60
65568;DHT22;52211;50.154;8.682;2024-01-06T02:32:54;8.40;65.60
65568;DHT22;52211;50.154;8.682;2024-01-06T02:35:23;8.50;65.60
65568;DHT22;52211;50.154;8.682;2024-01-06T02:37:52;8.50;65.60
65568;DHT22;52211;50.154;8.682;2024-01-06T02:40:19;8.50;65.50
65568;DHT22;52211;50.154;8.682;2024-01-06T02:42:51;8.50;65.50
65568;DHT22;52211;50.154;8.682;2024-01-06T02:45:18;8.50;65.60
65568;DHT22;52211;50.154;8.682;2024-01-06T02:47:45;8.50;65.50
65568;DHT22;52211;50.154;8.682;2024-01-06T02:50:18;8.60;65.50
65568;DHT22;52211;50.154;8.682;2024-01-06T02:52:47;8.50;65.40
65568;DHT22;52211;50.154;8.682;2024-01-06T02:55:16;8.50;65.40
65568;DHT22;52211;50.154;8.682;2024-01-06T02:57:45;8.60;65.40
65568;DHT22;52211;50.154;8.682;2024-01-06T03:00:15;8.50;65.40
65568;DHT22;52211;50.154;8.682;2024-01-06T03:02:45;8.50;65.40
65568;DHT22;52211;50.154;8.682;2024-01-06T03:05:16;8.50;65.40
65568;DHT22;52211;50.154;8.682;2024-01-06T03:07:43;8.50;65.40
65568;DHT22;52211;50.154;8.682;2024-01-06T03:10:11;8.50;65.50
65568;DHT22;52211;50.154;8.682;2024-01-06T03:12:40;8.50;65.50
65568;DHT22;52211;50.154;8.682;2024-01-06T03:15:11;8.60;65.50
65568;DHT22;52211;50.154;8.682;2024-01-06T03:17:41;8.50;65.50
65568;DHT22;52211;50.154;8.682;2024-01-06T03:20:10;8.60;65.50
65568;DHT22;52211;50.154;8.682;2024-01-06T03:22:37;8.60;65.50
65568;DHT22;52211;50.154;8.682;2024-01-06T03:25:05;8.50;65.50
65568;DHT22;52211;50.154;8.682;2024-01-06T03:27:32;8.50;65.40
65568;DHT22;52211;50.154;8.682;2024-01-06T03:30:04;8.60;65.50
65568;DHT22;52211;50.154;8.682;2024-01-06T03:32:32;8.60;65.50
65568;DHT22;52211;50.154;8.682;2024-01-06T03:34:59;8.60;65.50
65568;DHT22;52211;50.154;8.682;2024-01-06T03:37:26;8.60;65.50
65568;DHT22;52211;50.154;8.682;2024-01-06T03:39:53;8.60;65.50
65568;DHT22;52211;50.154;8.682;2024-01-06T03:42:20;8.60;65.50
65568;DHT22;52211;50.154;8.682;2024-01-06T03:44:49;8.60;65.50
65568;DHT22;52211;50.154;8.682;2024-01-06T03:47:21;8.60;65.50
65568;DHT22;52211;50.154;8.682;2024-01-06T03:49:48;8.60;65.50
65568;DHT22;52211;50.154;8.682;2024-01-06T03:52:17;8.60;65.50
65568;DHT22;52211;50.154;8.682;2024-01-06T03:54:47;8.60;65.50
65568;DHT22;52211;50.154;8.682;2024-01-06T03:57:16;8.60;65.50
65568;DHT22;52211;50.154;8.682;2024-01-06T03:59:45;8.60;65.50
65568;DHT22;52211;50.154;8.682;2024-01-06T04:02:12;8.60;65.50
65568;DHT22;52211;50.154;8.682;2024-01-06T04:04:39;8.60;65.50
65568;DHT22;52211;50.154;8.682;2024-01-06T04:07:08;8.60;65.50
65568;DHT22;52211;50.154;8.682;2024-01-06T04:09:41;8.70;65.60
65568;DHT22;52211;50.154;8.682;2024-01-06T04:12:13;8.70;65.60
65568;DHT22;52211;50.154;8.682;2024-01-06T04:14:40;8.70;65.60
65568;DHT22;52211;50.154;8.682;2024-01-06T04:17:10;8.70;65.50
65568;DHT22;52211;50.154;8.682;2024-01-06T04:19:41;8.70;65.50
65568;DHT22;52211;50.154;8.682;2024-01-06T04:22:10;8.70;65.50
65568;DHT22;52211;50.154;8.682;2024-01-06T04:24:37;8.70;65.50
65568;DHT22;52211;50.154;8.682;2024-01-06T04:27:05;8.80;65.60
65568;DHT22;52211;50.154;8.682;2024-01-06T04:29:34;8.80;65.60
65568;DHT22;52211;50.154;8.682;2024-01-06T04:32:03;8.80;65.50
65568;DHT22;52211;50.154;8.682;2024-01-06T04:34:30;8.80;65.50
65568;DHT22;52211;50.154;8.682;2024-01-06T04:36:57;8.80;65.40
65568;DHT22;52211;50.154;8.682;2024-01-06T04:39:32;8.80;65.50
65568;DHT22;52211;50.154;8.682;2024-01-06T04:42:03;8.80;65.40
65568;DHT22;52211;50.154;8.682;2024-01-06T04:44:31;8.80;65.40
65568;DHT22;52211;50.154;8.682;2024-01-06T04:46:58;8.80;65.40
65568;DHT22;52211;50.154;8.682;2024-01-06T04:49:25;8.80;65.40
65568;DHT22;52211;50.154;8.682;2024-01-06T04:51:57;8.80;65.40
65568;DHT22;52211;50.154;8.682;2024-01-06T04:54:24;8.80;65.40
65568;DHT22;52211;50.154;8.682;2024-01-06T04:56:54;8.70;65.30
65568;DHT22;52211;50.154;8.682;2024-01-06T04:59:21;8.80;65.40
65568;DHT22;52211;50.154;8.682;2024-01-06T05:01:48;8.70;65.40
65568;DHT22;52211;50.154;8.682;2024-01-06T05:04:15;8.70;65.40
65568;DHT22;52211;50.154;8.682;2024-01-06T05:06:45;8.70;65.40
65568;DHT22;52211;50.154;8.682;2024-01-06T05:09:14;8.70;65.40
65568;DHT22;52211;50.154;8.682;2024-01-06T05:11:44;8.70;65.40
65568;DHT22;52211;50.154;8.682;2024-01-06T05:14:16;8.70;65.40
65568;DHT22;52211;50.154;8.682;2024-01-06T05:16:43;8.70;65.40
65568;DHT22;52211;50.154;8.682;2024-01-06T05:19:10;8.70;65.40
65568;DHT22;52211;50.154;8.682;2024-01-06T05:21:47;8.70;65.40
65568;DHT22;52211;50.154;8.682;2024-01-06T05:24:18;8.70;65.40
65568;DHT22;52211;50.154;8.682;2024-01-06T05:26:46;8.70;65.40
65568;DHT22;52211;50.154;8.682;2024-01-06T05:29:18;8.70;65.40
65568;DHT22;52211;50.154;8.682;2024-01-06T05:31:47;8.70;65.50
65568;DHT22;52211;50.154;8.682;2024-01-06T05:34:19;8.70;65.50
65568;DHT22;52211;50.154;8.682;2024-01-06T05:36:48;8.70;65.40
65568;DHT22;52211;50.154;8.682;2024-01-06T05:39:15;8.70;65.50
65568;DHT22;52211;50.154;8.682;2024-01-06T05:41:44;8.70;65.50
65568;DHT22;52211;50.154;8.682;2024-01-06T05:44:13;8.70;65.50
65568;DHT22;52211;50.154;8.682;2024-01-06T05:46:40;8.70;65.50
65568;DHT22;52211;50.154;8.682;2024-01-06T05:49:12;8.70;65.40
65568;DHT22;52211;50.154;8.682;2024-01-06T05:51:45;8.70;65.40
65568;DHT22;52211;50.154;8.682;2024-01-06T05:54:13;8.70;65.50
65568;DHT22;52211;50.154;8.682;2024-01-06T05:56:40;8.70;65.40
65568;DHT22;52211;50.154;8.682;2024-01-06T05:59:09;8.70;65.50
65568;DHT22;52211;50.154;8.682;2024-01-06T06:01:36;8.70;65.50
65568;DHT22;52211;50.154;8.682;2024-01-06T06:04:03;8.60;65.40
65568;DHT22;52211;50.154;8.682;2024-01-06T06:06:34;8.60;65.40
65568;DHT22;52211;50.154;8.682;2024-01-06T06:09:08;8.70;65.50
65568;DHT22;52211;50.154;8.682;2024-01-06T06:11:39;8.60;65.50
65568;DHT22;52211;50.154;8.682;2024-01-06T06:14:06;8.60;65.50
65568;DHT22;52211;50.154;8.682;2024-01-06T06:16:35;8.60;65.50
65568;DHT22;52211;50.154;8.682;2024-01-06T06:19:07;8.60;65.50
65568;DHT22;52211;50.154;8.682;2024-01-06T06:21:36;8.70;65.70
65568;DHT22;52211;50.154;8.682;2024-01-06T06:24:07;8.70;65.60
65568;DHT22;52211;50.154;8.682;2024-01-06T06:26:39;8.70;65.60
65568;DHT22;52211;50.154;8.682;2024-01-06T06:29:12;8.70;65.60
65568;DHT22;52211;50.154;8.682;2024-01-06T06:31:39;8.70;65.50
65568;DHT22;52211;50.154;8.682;2024-01-06T06:34:06;8.70;65.50
65568;DHT22;52211;50.154;8.682;2024-01-06T06:36:36;8.70;65.60
65568;DHT22;52211;50.154;8.682;2024-01-06T06:39:04;8.70;65.60
65568;DHT22;52211;50.154;8.682;2024-01-06T06:41:31;8.70;65.60
65568;DHT22;52211;50.154;8.682;2024-01-06T06:44:00;8.70;65.60
65568;DHT22;52211;50.154;8.682;2024-01-06T06:46:34;8.70;65.60
65568;DHT22;52211;50.154;8.682;2024-01-06T06:49:01;8.70;65.60
65568;DHT22;52211;50.154;8.682;2024-01-06T06:51:31;8.70;65.60
65568;DHT22;52211;50.154;8.682;2024-01-06T06:54:03;8.70;65.60
65568;DHT22;52211;50.154;8.682;2024-01-06T06:56:33;8.70;65.70
65568;DHT22;52211;50.154;8.682;2024-01-06T06:59:01;8.70;65.70
65568;DHT22;52211;50.154;8.682;2024-01-06T07:01:28;8.70;65.70
65568;DHT22;52211;50.154;8.682;2024-01-06T07:03:59;8.70;65.70
65568;DHT22;52211;50.154;8.682;2024-01-06T07:06:26;8.70;65.80
65568;DHT22;52211;50.154;8.682;2024-01-06T07:08:55;8.70;65.70
65568;DHT22;52211;50.154;8.682;2024-01-06T07:11:23;8.70;65.70
65568;DHT22;52211;50.154;8.682;2024-01-06T07:13:53;8.70;65.70
65568;DHT22;52211;50.154;8.682;2024-01-06T07:16:20;8.70;65.70
65568;DHT22;52211;50.154;8.682;2024-01-06T07:18:51;8.70;65.80
65568;DHT22;52211;50.154;8.682;2024-01-06T07:21:23;8.70;65.80
65568;DHT22;52211;50.154;8.682;2024-01-06T07:23:50;8.70;65.80
65568;DHT22;52211;50.154;8.682;2024-01-06T07:26:17;8.80;65.80
65568;DHT22;52211;50.154;8.682;2024-01-06T07:28:44;8.80;65.80
65568;DHT22;52211;50.154;8.682;2024-01-06T07:31:14;8.80;65.80
65568;DHT22;52211;50.154;8.682;2024-01-06T07:33:41;8.80;65.80
65568;DHT22;52211;50.154;8.682;2024-01-06T07:36:08;8.80;65.80
65568;DHT22;52211;50.154;8.682;2024-01-06T07:38:37;8.80;65.80
65568;DHT22;52211;50.154;8.682;2024-01-06T07:41:07;8.80;65.80
65568;DHT22;52211;50.154;8.682;2024-01-06T07:43:34;8.80;65.80
65568;DHT22;52211;50.154;8.682;2024-01-06T07:46:05;8.80;65.90
65568;DHT22;52211;50.154;8.682;2024-01-06T07:48:33;8.80;65.90
65568;DHT22;52211;50.154;8.682;2024-01-06T07:51:01;8.80;65.90
65568;DHT22;52211;50.154;8.682;2024-01-06T07:53:30;8.80;65.90
65568;DHT22;52211;50.154;8.682;2024-01-06T07:55:59;8.80;65.90
65568;DHT22;52211;50.154;8.682;2024-01-06T07:58:26;8.80;65.90
65568;DHT22;52211;50.154;8.682;2024-01-06T08:00:59;8.80;65.90
65568;DHT22;52211;50.154;8.682;2024-01-06T08:03:26;8.80;65.90
65568;DHT22;52211;50.154;8.682;2024-01-06T08:05:56;8.80;65.90
65568;DHT22;52211;50.154;8.682;2024-01-06T08:08:26;8.80;66.00
65568;DHT22;52211;50.154;8.682;2024-01-06T08:10:55;8.80;65.90
65568;DHT22;52211;50.154;8.682;2024-01-06T08:13:27;8.80;65.90
65568;DHT22;52211;50.154;8.682;2024-01-06T08:15:54;8.80;66.00
65568;DHT22;52211;50.154;8.682;2024-01-06T08:18:26;8.80;66.10
65568;DHT22;52211;50.154;8.682;2024-01-06T08:20:54;8.80;66.10
65568;DHT22;52211;50.154;8.682;2024-01-06T08:23:21;8.80;66.20
65568;DHT22;52211;50.154;8.682;2024-01-06T08:25:48;8.80;66.20
65568;DHT22;52211;50.154;8.682;2024-01-06T08:28:20;8.80;66.30
65568;DHT22;52211;50.154;8.682;2024-01-06T08:30:50;8.80;66.30
65568;DHT22;52211;50.154;8.682;2024-01-06T08:33:17;8.80;66.40
65568;DHT22;52211;50.154;8.682;2024-01-06T08:35:49;8.90;66.40
65568;DHT22;52211;50.154;8.682;2024-01-06T08:38:18;8.90;66.40
65568;DHT22;52211;50.154;8.682;2024-01-06T08:40:49;8.90;66.40
65568;DHT22;52211;50.154;8.682;2024-01-06T08:43:20;8.90;66.30
65568;DHT22;52211;50.154;8.682;2024-01-06T08:45:49;8.90;66.40
65568;DHT22;52211;50.154;8.682;2024-01-06T08:48:19;8.90;66.40
65568;DHT22;52211;50.154;8.682;2024-01-06T08:50:50;9.00;66.50
65568;DHT22;52211;50.154;8.682;2024-01-06T08:53:20;9.00;66.50
65568;DHT22;52211;50.154;8.682;2024-01-06T08:55:49;9.00;66.50
65568;DHT22;52211;50.154;8.682;2024-01-06T08:58:16;9.00;66.30
65568;DHT22;52211;50.154;8.682;2024-01-06T09:00:44;9.10;66.30
65568;DHT22;52211;50.154;8.682;2024-01-06T09:03:15;9.10;66.30
65568;DHT22;52211;50.154;8.682;2024-01-06T09:05:45;9.10;66.40
65568;DHT22;52211;50.154;8.682;2024-01-06T09:08:14;9.10;66.40
65568;DHT22;52211;50.154;8.682;2024-01-06T09:10:43;9.10;66.40
65568;DHT22;52211;50.154;8.682;2024-01-06T09:13:10;9.10;66.50
65568;DHT22;52211;50.154;8.682;2024-01-06T09:15:37;9.10;66.40
65568;DHT22;52211;50.154;8.682;2024-01-06T09:18:04;9.10;66.40
65568;DHT22;52211;50.154;8.682;2024-01-06T09:20:31;9.10;66.50
65568;DHT22;52211;50.154;8.682;2024-01-06T09:22:58;9.10;66.40
65568;DHT22;52211;50.154;8.682;2024-01-06T09:25:28;9.00;66.40
65568;DHT22;52211;50.154;8.682;2024-01-06T09:27:57;9.00;66.40
65568;DHT22;52211;50.154;8.682;2024-01-06T09:30:32;9.00;66.50
65568;DHT22;52211;50.154;8.682;2024-01-06T09:33:01;9.00;66.50
65568;DHT22;52211;50.154;8.682;2024-01-06T09:35:28;9.00;66.60
65568;DHT22;52211;50.154;8.682;2024-01-06T09:38:00;9.00;66.50
65568;DHT22;52211;50.154;8.682;2024-01-06T09:40:31;9.00;66.60
65568;DHT22;52211;50.154;8.682;2024-01-06T09:42:58;9.10;66.70
65568;DHT22;52211;50.154;8.682;2024-01-06T09:45:25;9.10;66.70
65568;DHT22;52211;50.154;8.682;2024-01-06T09:47:53;9.10;66.70
65568;DHT22;52211;50.154;8.682;2024-01-06T09:50:22;9.10;66.80
65568;DHT22;52211;50.154;8.682;2024-01-06T09:52:49;9.10;66.80
65568;DHT22;52211;50.154;8.682;2024-01-06T09:55:26;9.20;66.80
65568;DHT22;52211;50.154;8.682;2024-01-06T09:57:55;9.20;66.80
65568;DHT22;52211;50.154;8.682;2024-01-06T10:00:25;9.20;66.70
65568;DHT22;52211;50.154;8.682;2024-01-06T10:02:52;9.20;66.70
65568;DHT22;52211;50.154;8.682;2024-01-06T10:05:28;9.20;66.70
65568;DHT22;52211;50.154;8.682;2024-01-06T10:07:57;9.20;66.70
65568;DHT22;52211;50.154;8.682;2024-01-06T10:10:30;9.20;66.70
65568;DHT22;52211;50.154;8.682;2024-01-06T10:13:00;9.20;66.80
65568;DHT22;52211;50.154;8.682;2024-01-06T10:15:32;9.30;66.90
65568;DHT22;52211;50.154;8.682;2024-01-06T10:18:06;9.30;67.00
65568;DHT22;52211;50.154;8.682;2024-01-06T10:20:38;9.30;66.90
65568;DHT22;52211;50.154;8.682;2024-01-06T10:23:08;9.40;66.90
65568;DHT22;52211;50.154;8.682;2024-01-06T10:25:35;9.40;67.40
65568;DHT22;52211;50.154;8.682;2024-01-06T10:28:02;9.40;66.80
65568;DHT22;52211;50.154;8.682;2024-01-06T10:30:34;9.40;66.80
65568;DHT22;52211;50.154;8.682;2024-01-06T10:33:09;9.40;66.80
65568;DHT22;52211;50.154;8.682;2024-01-06T10:35:40;9.40;66.80
65568;DHT22;52211;50.154;8.682;2024-01-06T10:38:11;9.50;66.70
65568;DHT22;52211;50.154;8.682;2024-01-06T10:40:38;9.40;66.70
65568;DHT22;52211;50.154;8.682;2024-01-06T10:43:05;9.50;66.60
65568;DHT22;52211;50.154;8.682;2024-01-06T10:45:39;9.50;66.60
65568;DHT22;52211;50.154;8.682;2024-01-06T10:48:11;9.50;66.70
65568;DHT22;52211;50.154;8.682;2024-01-06T10:50:43;9.50;66.70
65568;DHT22;52211;50.154;8.682;2024-01-06T10:53:12;9.50;66.80
65568;DHT22;52211;50.154;8.682;2024-01-06T10:55:44;9.50;66.80
65568;DHT22;52211;50.154;8.682;2024-01-06T10:58:12;9.50;66.80
65568;DHT22;52211;50.154;8.682;2024-01-06T11:00:44;9.50;66.80
65568;DHT22;52211;50.154;8.682;2024-01-06T11:03:18;9.50;66.80
65568;DHT22;52211;50.154;8.682;2024-01-06T11:05:51;9.60;66.90
65568;DHT22;52211;50.154;8.682;2024-01-06T11:08:18;9.60;66.90
65568;DHT22;52211;50.154;8.682;2024-01-06T11:10:52;9.60;67.00
65568;DHT22;52211;50.154;8.682;2024-01-06T11:13:22;9.70;67.00
65568;DHT22;52211;50.154;8.682;2024-01-06T11:15:55;9.70;67.00
65568;DHT22;52211;50.154;8.682;2024-01-06T11:18:38;9.80;67.00
65568;DHT22;52211;50.154;8.682;2024-01-06T11:23:45;9.90;66.90
65568;DHT22;52211;50.154;8.682;2024-01-06T11:26:13;9.90;67.00
65568;DHT22;52211;50.154;8.682;2024-01-06T11:28:45;9.90;67.10
65568;DHT22;52211;50.154;8.682;2024-01-06T11:31:13;10.00;67.10
65568;DHT22;52211;50.154;8.682;2024-01-06T11:33:46;10.10;67.10
65568;DHT22;52211;50.154;8.682;2024-01-06T11:36:21;10.20;67.20
65568;DHT22;52211;50.154;8.682;2024-01-06T11:38:48;10.30;67.20
65568;DHT22;52211;50.154;8.682;2024-01-06T11:41:48;10.40;66.90
65568;DHT22;52211;50.154;8.682;2024-01-06T11:44:23;10.40;66.80
65568;DHT22;52211;50.154;8.682;2024-01-06T11:46:51;10.50;66.60
65568;DHT22;52211;50.154;8.682;2024-01-06T11:49:29;10.60;66.70
65568;DHT22;52211;50.154;8.682;2024-01-06T11:51:59;10.60;66.60
65568;DHT22;52211;50.154;8.682;2024-01-06T11:54:27;10.70;66.50
65568;DHT22;52211;50.154;8.682;2024-01-06T11:56:56;10.70;66.30
65568;DHT22;52211;50.154;8.682;2024-01-06T11:59:24;10.70;66.30
65568;DHT22;52211;50.154;8.682;2024-01-06T12:01:53;10.70;66.30
65568;DHT22;52211;50.154;8.682;2024-01-06T12:04:23;10.70;66.20
65568;DHT22;52211;50.154;8.682;2024-01-06T12:07:07;10.70;66.10
65568;DHT22;52211;50.154;8.682;2024-01-06T12:09:39;10.70;66.00
65568;DHT22;52211;50.154;8.682;2024-01-06T12:12:07;10.70;66.10
65568;DHT22;52211;50.154;8.682;2024-01-06T12:14:36;10.70;66.20
65568;DHT22;52211;50.154;8.682;2024-01-06T12:17:09;10.80;66.30
65568;DHT22;52211;50.154;8.682;2024-01-06T12:19:42;10.80;66.20
65568;DHT22;52211;50.154;8.682;2024-01-06T12:22:12;10.80;66.20
65568;DHT22;52211;50.154;8.682;2024-01-06T12:24:48;10.80;66.10
65568;DHT22;52211;50.154;8.682;2024-01-06T12:27:17;10.80;66.10
65568;DHT22;52211;50.154;8.682;2024-01-06T12:29:47;10.80;66.20
65568;DHT22;52211;50.154;8.682;2024-01-06T12:32:14;10.80;66.20
65568;DHT22;52211;50.154;8.682;2024-01-06T12:34:41;10.80;66.20
65568;DHT22;52211;50.154;8.682;2024-01-06T12:37:13;10.90;66.30
65568;DHT22;52211;50.154;8.682;2024-01-06T12:39:43;10.90;66.30
65568;DHT22;52211;50.154;8.682;2024-01-06T12:42:15;10.90;66.20
65568;DHT22;52211;50.154;8.682;2024-01-06T12:44:48;10.90;66.20
65568;DHT22;52211;50.154;8.682;2024-01-06T12:47:22;10.90;66.20
65568;DHT22;52211;50.154;8.682;2024-01-06T12:49:51;10.90;66.20
65568;DHT22;52211;50.154;8.682;2024-01-06T12:52:18;10.90;66.10
65568;DHT22;52211;50.154;8.682;2024-01-06T12:54:48;10.90;66.10
65568;DHT22;52211;50.154;8.682;2024-01-06T12:57:17;10.90;66.10
65568;DHT22;52211;50.154;8.682;2024-01-06T12:59:49;10.90;66.20
65568;DHT22;52211;50.154;8.682;2024-01-06T13:02:19;10.90;66.20
65568;DHT22;52211;50.154;8.682;2024-01-06T13:04:50;10.90;66.20
65568;DHT22;52211;50.154;8.682;2024-01-06T13:07:17;10.90;66.20
65568;DHT22;52211;50.154;8.682;2024-01-06T13:09:47;10.90;66.10
65568;DHT22;52211;50.154;8.682;2024-01-06T13:12:14;10.90;66.10
65568;DHT22;52211;50.154;8.682;2024-01-06T13:14:47;10.90;66.10
65568;DHT22;52211;50.154;8.682;2024-01-06T13:17:17;10.90;66.10
65568;DHT22;52211;50.154;8.682;2024-01-06T13:19:47;11.00;66.10
65568;DHT22;52211;50.154;8.682;2024-01-06T13:22:19;11.00;66.10
65568;DHT22;52211;50.154;8.682;2024-01-06T13:24:48;11.00;66.10
65568;DHT22;52211;50.154;8.682;2024-01-06T13:27:22;11.00;66.10
65568;DHT22;52211;50.154;8.682;2024-01-06T13:29:49;11.00;66.10
65568;DHT22;52211;50.154;8.682;2024-01-06T13:32:16;11.10;66.20
65568;DHT22;52211;50.154;8.682;2024-01-06T13:34:46;11.10;66.10
65568;DHT22;52211;50.154;8.682;2024-01-06T13:37:13;11.10;66.00
65568;DHT22;52211;50.154;8.682;2024-01-06T13:39:44;11.10;65.90
65568;DHT22;52211;50.154;8.682;2024-01-06T13:42:13;11.10;65.80
65568;DHT22;52211;50.154;8.682;2024-01-06T13:44:48;11.10;65.80
65568;DHT22;52211;50.154;8.682;2024-01-06T13:47:15;11.10;65.90
65568;DHT22;52211;50.154;8.682;2024-01-06T13:49:42;11.10;66.00
65568;DHT22;52211;50.154;8.682;2024-01-06T13:52:12;11.10;66.00
65568;DHT22;52211;50.154;8.682;2024-01-06T13:54:39;11.10;66.10
65568;DHT22;52211;50.154;8.682;2024-01-06T13:57:06;11.20;66.10
65568;DHT22;52211;50.154;8.682;2024-01-06T13:59:35;11.10;66.00
65568;DHT22;52211;50.154;8.682;2024-01-06T14:02:06;11.20;66.00
65568;DHT22;52211;50.154;8.682;2024-01-06T14:04:34;11.20;65.90
65568;DHT22;52211;50.154;8.682;2024-01-06T14:07:02;11.20;65.90
65568;DHT22;52211;50.154;8.682;2024-01-06T14:09:31;11.20;65.90
65568;DHT22;52211;50.154;8.682;2024-01-06T14:12:03;11.20;65.90
65568;DHT22;52211;50.154;8.682;2024-01-06T14:14:35;11.30;65.90
65568;DHT22;52211;50.154;8.682;2024-01-06T14:17:04;11.30;65.90
65568;DHT22;52211;50.154;8.682;2024-01-06T14:19:33;11.30;65.90
65568;DHT22;52211;50.154;8.682;2024-01-06T14:22:01;11.30;65.90
65568;DHT22;52211;50.154;8.682;2024-01-06T14:24:33;11.30;65.80
65568;DHT22;52211;50.154;8.682;2024-01-06T14:27:00;11.30;65.80
65568;DHT22;52211;50.154;8.682;2024-01-06T14:29:27;11.20;65.80
65568;DHT22;52211;50.154;8.682;2024-01-06T14:31:56;11.30;65.80
65568;DHT22;52211;50.154;8.682;2024-01-06T14:34:28;11.30;65.70
65568;DHT22;52211;50.154;8.682;2024-01-06T14:37:00;11.20;65.60
65568;DHT22;52211;50.154;8.682;2024-01-06T14:39:27;11.20;65.60
65568;DHT22;52211;50.154;8.682;2024-01-06T14:41:57;11.10;65.50
65568;DHT22;52211;50.154;8.682;2024-01-06T14:44:24;11.20;65.60
65568;DHT22;52211;50.154;8.682;2024-01-06T14:46:59;11.10;65.50
65568;DHT22;52211;50.154;8.682;2024-01-06T14:49:26;11.10;65.50
65568;DHT22;52211;50.154;8.682;2024-01-06T14:51:56;11.10;65.40
65568;DHT22;52211;50.154;8.682;2024-01-06T14:54:23;11.10;65.50
65568;DHT22;52211;50.154;8.682;2024-01-06T14:56:52;11.00;65.40
65568;DHT22;52211;50.154;8.682;2024-01-06T14:59:22;11.00;65.30
65568;DHT22;52211;50.154;8.682;2024-01-06T15:01:51;11.00;65.30
65568;DHT22;52211;50.154;8.682;2024-01-06T15:04:20;11.00;65.20
65568;DHT22;52211;50.154;8.682;2024-01-06T15:06:47;10.90;65.70
65568;DHT22;52211;50.154;8.682;2024-01-06T15:09:19;10.90;65.20
65568;DHT22;52211;50.154;8.682;2024-01-06T15:11:49;10.90;65.20
65568;DHT22;52211;50.154;8.682;2024-01-06T15:14:16;10.80;65.10
65568;DHT22;52211;50.154;8.682;2024-01-06T15:16:45;10.80;65.10
65568;DHT22;52211;50.154;8.682;2024-01-06T15:19:14;10.80;65.20
65568;DHT22;52211;50.154;8.682;2024-01-06T15:21:41;10.70;65.10
65568;DHT22;52211;50.154;8.682;2024-01-06T15:24:13;10.70;65.20
65568;DHT22;52211;50.154;8.682;2024-01-06T15:26:44;10.70;65.20
65568;DHT22;52211;50.154;8.682;2024-01-06T15:29:16;10.60;65.10
65568;DHT22;52211;50.154;8.682;2024-01-06T15:31:47;10.60;65.10
65568;DHT22;52211;50.154;8.682;2024-01-06T15:34:15;10.60;65.10
65568;DHT22;52211;50.154;8.682;2024-01-06T15:36:45;10.60;65.10
65568;DHT22;52211;50.154;8.682;2024-01-06T15:39:19;10.50;65.00
65568;DHT22;52211;50.154;8.682;2024-01-06T15:41:46;10.50;65.10
65568;DHT22;52211;50.154;8.682;2024-01-06T15:44:13;10.50;65.00
65568;DHT22;52211;50.154;8.682;2024-01-06T15:46:47;10.40;65.00
65568;DHT22;52211;50.154;8.682;2024-01-06T15:49:14;10.50;65.00
65568;DHT22;52211;50.154;8.682;2024-01-06T15:51:41;10.40;64.90
65568;DHT22;52211;50.154;8.682;2024-01-06T15:54:10;10.40;65.30
65568;DHT22;52211;50.154;8.682;2024-01-06T15:56:42;10.30;65.00
65568;DHT22;52211;50.154;8.682;2024-01-06T15:59:09;10.30;65.00